sensor_id;sensor_type;location;lat;lon;timestamp;pressure;altitude;pressure_sealevel;temperature;humidity
41515;BME280;27247;48.020;16.720;2023-10-31T00:00:23;98474.16;;;14.50;98.62
41515;BME280;27247;48.020;16.720;2023-10-31T00:04:33;98455.94;;;14.52;98.59
41515;BME280;27247;48.020;16.720;2023-10-31T00:08:43;98456.50;;;14.54;98.28
41515;BME280;27247;48.020;16.720;2023-10-31T00:12:54;98462.72;;;14.55;98.09
41515;BME280;27247;48.020;16.720;2023-10-31T00:17:04;98449.16;;;14.61;97.41
41515;BME280;27247;48.020;16.720;2023-10-31T00:21:14;98436.06;;;14.65;96.42
41515;BME280;27247;48.020;16.720;2023-10-31T00:25:25;98432.69;;;14.69;95.52
41515;BME280;27247;48.020;16.720;2023-10-31T00:29:35;98414.78;;;14.75;94.63
41515;BME280;27247;48.020;16.720;2023-10-31T00:33:45;98419.44;;;14.80;93.47
41515;BME280;27247;48.020;16.720;2023-10-31T00:37:56;98411.72;;;14.83;93.45
41515;BME280;27247;48.020;16.720;2023-10-31T00:42:06;98396.53;;;14.77;93.25
41515;BME280;27247;48.020;16.720;2023-10-31T00:46:17;98396.88;;;14.81;92.63
41515;BME280;27247;48.020;16.720;2023-10-31T00:50:28;98377.22;;;14.80;92.92
41515;BME280;27247;48.020;16.720;2023-10-31T00:54:39;98383.44;;;14.81;92.41
41515;BME280;27247;48.020;16.720;2023-10-31T00:58:49;98372.91;;;14.79;92.44
41515;BME280;27247;48.020;16.720;2023-10-31T01:02:59;98360.28;;;14.80;92.40
41515;BME280;27247;48.020;16.720;2023-10-31T01:07:10;98380.03;;;14.85;92.14
41515;BME280;27247;48.020;16.720;2023-10-31T01:11:22;98405.28;;;14.84;92.00
41515;BME280;27247;48.020;16.720;2023-10-31T01:15:32;98388.91;;;14.86;91.84
41515;BME280;27247;48.020;16.720;2023-10-31T01:19:43;98390.69;;;14.80;92.06
41515;BME280;27247;48.020;16.720;2023-10-31T01:23:53;98373.81;;;14.85;91.86
41515;BME280;27247;48.020;16.720;2023-10-31T01:28:03;98369.50;;;14.84;91.66
41515;BME280;27247;48.020;16.720;2023-10-31T01:32:13;98364.03;;;14.79;91.89
41515;BME280;27247;48.020;16.720;2023-10-31T01:36:25;98374.78;;;14.79;91.62
41515;BME280;27247;48.020;16.720;2023-10-31T01:40:36;98353.50;;;14.77;91.45
41515;BME280;27247;48.020;16.720;2023-10-31T01:44:47;98341.56;;;14.85;90.68
41515;BME280;27247;48.020;16.720;2023-10-31T01:48:58;98316.88;;;14.88;90.56
41515;BME280;27247;48.020;16.720;2023-10-31T01:53:08;98319.94;;;14.80;90.47
41515;BME280;27247;48.020;16.720;2023-10-31T01:57:19;98301.78;;;14.87;89.22
41515;BME280;27247;48.020;16.720;2023-10-31T02:01:32;98298.94;;;14.93;88.61
41515;BME280;27247;48.020;16.720;2023-10-31T02:05:45;98277.75;;;14.97;87.70
41515;BME280;27247;48.020;16.720;2023-10-31T02:09:55;98283.31;;;15.07;87.36
41515;BME280;27247;48.020;16.720;2023-10-31T02:14:06;98284.94;;;15.08;87.00
41515;BME280;27247;48.020;16.720;2023-10-31T02:18:17;98274.50;;;15.12;86.10
41515;BME280;27247;48.020;16.720;2023-10-31T02:22:28;98282.59;;;15.12;86.29
41515;BME280;27247;48.020;16.720;2023-10-31T02:26:38;98287.97;;;15.12;86.29
41515;BME280;27247;48.020;16.720;2023-10-31T02:30:48;98279.16;;;14.99;87.38
41515;BME280;27247;48.020;16.720;2023-10-31T02:34:59;98277.09;;;14.90;87.37
41515;BME280;27247;48.020;16.720;2023-10-31T02:39:09;98280.34;;;14.92;87.29
41515;BME280;27247;48.020;16.720;2023-10-31T02:43:19;98280.84;;;14.89;86.90
41515;BME280;27247;48.020;16.720;2023-10-31T02:47:30;98281.19;;;14.92;86.78
41515;BME280;27247;48.020;16.720;2023-10-31T02:51:40;98305.38;;;14.92;87.23
41515;BME280;27247;48.020;16.720;2023-10-31T02:55:50;98309.59;;;14.88;86.74
41515;BME280;27247;48.020;16.720;2023-10-31T03:00:01;98302.25;;;14.84;87.38
41515;BME280;27247;48.020;16.720;2023-10-31T03:04:11;98294.59;;;14.76;88.46
41515;BME280;27247;48.020;16.720;2023-10-31T03:08:22;98283.41;;;14.67;88.67
41515;BME280;27247;48.020;16.720;2023-10-31T03:12:32;98256.19;;;14.63;88.82
41515;BME280;27247;48.020;16.720;2023-10-31T03:16:42;98224.41;;;14.60;89.53
41515;BME280;27247;48.020;16.720;2023-10-31T03:20:53;98201.72;;;14.56;89.80
41515;BME280;27247;48.020;16.720;2023-10-31T03:25:03;98191.31;;;14.60;88.96
41515;BME280;27247;48.020;16.720;2023-10-31T03:29:14;98180.69;;;14.53;89.80
41515;BME280;27247;48.020;16.720;2023-10-31T03:33:24;98177.19;;;14.53;89.46
41515;BME280;27247;48.020;16.720;2023-10-31T03:37:35;98160.34;;;14.57;89.11
41515;BME280;27247;48.020;16.720;2023-10-31T03:41:46;98170.41;;;14.50;89.76
41515;BME280;27247;48.020;16.720;2023-10-31T03:45:57;98162.34;;;14.50;90.03
41515;BME280;27247;48.020;16.720;2023-10-31T03:50:08;98184.09;;;14.49;89.89
41515;BME280;27247;48.020;16.720;2023-10-31T03:54:19;98252.94;;;14.50;89.89
41515;BME280;27247;48.020;16.720;2023-10-31T03:58:29;98276.63;;;14.64;89.79
41515;BME280;27247;48.020;16.720;2023-10-31T04:02:39;98287.13;;;14.66;89.50
41515;BME280;27247;48.020;16.720;2023-10-31T04:06:50;98292.44;;;14.49;90.10
41515;BME280;27247;48.020;16.720;2023-10-31T04:11:01;98282.97;;;14.47;89.35
41515;BME280;27247;48.020;16.720;2023-10-31T04:15:11;98287.63;;;14.51;89.75
41515;BME280;27247;48.020;16.720;2023-10-31T04:19:21;98304.22;;;14.48;90.55
41515;BME280;27247;48.020;16.720;2023-10-31T04:23:32;98309.13;;;14.51;90.87
41515;BME280;27247;48.020;16.720;2023-10-31T04:27:42;98319.41;;;14.54;90.23
41515;BME280;27247;48.020;16.720;2023-10-31T04:31:52;98323.28;;;14.58;89.42
41515;BME280;27247;48.020;16.720;2023-10-31T04:36:03;98316.63;;;14.61;88.78
41515;BME280;27247;48.020;16.720;2023-10-31T04:40:14;98341.97;;;14.65;88.65
41515;BME280;27247;48.020;16.720;2023-10-31T04:44:24;98369.97;;;14.81;89.79
41515;BME280;27247;48.020;16.720;2023-10-31T04:48:35;98363.88;;;14.85;90.79
41515;BME280;27247;48.020;16.720;2023-10-31T04:52:45;98369.16;;;14.80;90.18
41515;BME280;27247;48.020;16.720;2023-10-31T04:56:56;98391.56;;;14.97;90.62
41515;BME280;27247;48.020;16.720;2023-10-31T05:01:11;98385.59;;;14.95;92.08
41515;BME280;27247;48.020;16.720;2023-10-31T05:05:21;98393.66;;;14.95;90.73
41515;BME280;27247;48.020;16.720;2023-10-31T05:09:32;98406.41;;;15.00;90.40
41515;BME280;27247;48.020;16.720;2023-10-31T05:13:42;98413.66;;;14.99;89.62
41515;BME280;27247;48.020;16.720;2023-10-31T05:17:52;98424.66;;;14.98;89.47
41515;BME280;27247;48.020;16.720;2023-10-31T05:22:03;98414.59;;;14.93;89.44
41515;BME280;27247;48.020;16.720;2023-10-31T05:26:13;98421.28;;;14.91;89.17
41515;BME280;27247;48.020;16.720;2023-10-31T05:30:23;98419.88;;;14.88;89.60
41515;BME280;27247;48.020;16.720;2023-10-31T05:34:34;98425.41;;;14.82;90.16
41515;BME280;27247;48.020;16.720;2023-10-31T05:38:44;98430.88;;;14.87;90.37
41515;BME280;27247;48.020;16.720;2023-10-31T05:42:54;98424.72;;;14.75;90.51
41515;BME280;27247;48.020;16.720;2023-10-31T05:47:05;98428.56;;;14.79;90.81
41515;BME280;27247;48.020;16.720;2023-10-31T05:51:17;98459.53;;;14.81;91.86
41515;BME280;27247;48.020;16.720;2023-10-31T05:55:27;98480.59;;;14.73;93.22
41515;BME280;27247;48.020;16.720;2023-10-31T05:59:38;98502.69;;;14.75;93.88
41515;BME280;27247;48.020;16.720;2023-10-31T06:03:48;98517.56;;;14.65;93.66
41515;BME280;27247;48.020;16.720;2023-10-31T06:07:59;98515.22;;;14.69;91.46
41515;BME280;27247;48.020;16.720;2023-10-31T06:12:09;98516.38;;;14.61;93.37
41515;BME280;27247;48.020;16.720;2023-10-31T06:16:20;98528.50;;;14.52;94.06
41515;BME280;27247;48.020;16.720;2023-10-31T06:20:31;98539.84;;;14.43;94.63
41515;BME280;27247;48.020;16.720;2023-10-31T06:24:42;98551.53;;;14.48;95.17
41515;BME280;27247;48.020;16.720;2023-10-31T06:28:53;98551.25;;;14.38;93.87
41515;BME280;27247;48.020;16.720;2023-10-31T06:33:03;98553.72;;;14.39;93.05
41515;BME280;27247;48.020;16.720;2023-10-31T06:37:13;98553.22;;;14.31;93.06
41515;BME280;27247;48.020;16.720;2023-10-31T06:41:24;98553.34;;;14.24;91.43
41515;BME280;27247;48.020;16.720;2023-10-31T06:45:34;98551.56;;;14.18;91.84
41515;BME280;27247;48.020;16.720;2023-10-31T06:49:45;98556.00;;;14.13;91.85
41515;BME280;27247;48.020;16.720;2023-10-31T06:53:55;98554.81;;;14.09;92.00
41515;BME280;27247;48.020;16.720;2023-10-31T06:58:05;98549.53;;;14.02;91.01
41515;BME280;27247;48.020;16.720;2023-10-31T07:02:16;98542.06;;;14.04;91.78
41515;BME280;27247;48.020;16.720;2023-10-31T07:06:26;98518.59;;;13.99;91.34
41515;BME280;27247;48.020;16.720;2023-10-31T07:10:37;98529.22;;;14.06;91.12
41515;BME280;27247;48.020;16.720;2023-10-31T07:14:47;98538.94;;;14.07;91.26
41515;BME280;27247;48.020;16.720;2023-10-31T07:18:57;98555.88;;;14.07;92.80
41515;BME280;27247;48.020;16.720;2023-10-31T07:23:08;98575.81;;;14.00;94.08
41515;BME280;27247;48.020;16.720;2023-10-31T07:27:20;98578.38;;;13.95;95.53
41515;BME280;27247;48.020;16.720;2023-10-31T07:31:30;98579.66;;;13.92;97.31
41515;BME280;27247;48.020;16.720;2023-10-31T07:35:41;98605.31;;;13.88;97.52
41515;BME280;27247;48.020;16.720;2023-10-31T07:39:51;98595.03;;;13.85;98.00
41515;BME280;27247;48.020;16.720;2023-10-31T07:44:01;98592.78;;;13.82;97.72
41515;BME280;27247;48.020;16.720;2023-10-31T07:48:12;98598.16;;;13.82;94.70
41515;BME280;27247;48.020;16.720;2023-10-31T07:52:22;98603.09;;;13.85;93.23
41515;BME280;27247;48.020;16.720;2023-10-31T07:56:32;98614.41;;;13.87;92.99
41515;BME280;27247;48.020;16.720;2023-10-31T08:00:44;98620.84;;;13.86;93.98
41515;BME280;27247;48.020;16.720;2023-10-31T08:04:55;98623.75;;;13.85;93.00
41515;BME280;27247;48.020;16.720;2023-10-31T08:09:05;98629.78;;;13.80;92.20
41515;BME280;27247;48.020;16.720;2023-10-31T08:13:15;98614.72;;;13.79;91.48
41515;BME280;27247;48.020;16.720;2023-10-31T08:17:26;98614.72;;;13.79;90.02
41515;BME280;27247;48.020;16.720;2023-10-31T08:21:36;98605.63;;;13.80;90.04
41515;BME280;27247;48.020;16.720;2023-10-31T08:25:48;98617.19;;;13.81;89.29
41515;BME280;27247;48.020;16.720;2023-10-31T08:29:59;98618.50;;;13.90;90.08
41515;BME280;27247;48.020;16.720;2023-10-31T08:34:09;98634.25;;;13.86;89.77
41515;BME280;27247;48.020;16.720;2023-10-31T08:38:20;98640.44;;;13.87;89.00
41515;BME280;27247;48.020;16.720;2023-10-31T08:42:30;98640.44;;;13.87;88.78
41515;BME280;27247;48.020;16.720;2023-10-31T08:46:41;98672.69;;;13.87;89.49
41515;BME280;27247;48.020;16.720;2023-10-31T08:50:51;98677.59;;;13.90;91.45
41515;BME280;27247;48.020;16.720;2023-10-31T08:55:01;98653.66;;;13.88;92.86
41515;BME280;27247;48.020;16.720;2023-10-31T08:59:12;98638.44;;;13.82;94.48
41515;BME280;27247;48.020;16.720;2023-10-31T09:03:22;98638.75;;;13.74;95.35
41515;BME280;27247;48.020;16.720;2023-10-31T09:07:32;98596.94;;;13.66;95.91
41515;BME280;27247;48.020;16.720;2023-10-31T09:11:43;98586.13;;;13.55;95.85
41515;BME280;27247;48.020;16.720;2023-10-31T09:15:54;98587.59;;;13.51;95.92
41515;BME280;27247;48.020;16.720;2023-10-31T09:20:05;98588.34;;;13.39;95.58
41515;BME280;27247;48.020;16.720;2023-10-31T09:24:15;98615.25;;;13.33;95.41
41515;BME280;27247;48.020;16.720;2023-10-31T09:28:25;98630.91;;;13.36;97.08
41515;BME280;27247;48.020;16.720;2023-10-31T09:32:36;98642.75;;;13.28;97.97
41515;BME280;27247;48.020;16.720;2023-10-31T09:36:46;98646.94;;;13.24;96.21
41515;BME280;27247;48.020;16.720;2023-10-31T09:40:56;98654.16;;;13.24;96.92
41515;BME280;27247;48.020;16.720;2023-10-31T09:45:07;98654.03;;;13.12;99.52
41515;BME280;27247;48.020;16.720;2023-10-31T09:49:19;98652.50;;;12.98;100.00
41515;BME280;27247;48.020;16.720;2023-10-31T09:53:30;98653.88;;;12.82;100.00
41515;BME280;27247;48.020;16.720;2023-10-31T09:57:43;98651.53;;;12.67;100.00
41515;BME280;27247;48.020;16.720;2023-10-31T10:01:54;98657.72;;;12.68;100.00
41515;BME280;27247;48.020;16.720;2023-10-31T10:06:05;98627.03;;;12.64;100.00
41515;BME280;27247;48.020;16.720;2023-10-31T10:10:16;98639.28;;;12.53;100.00
41515;BME280;27247;48.020;16.720;2023-10-31T10:14:27;98667.09;;;12.52;100.00
41515;BME280;27247;48.020;16.720;2023-10-31T10:18:43;98653.94;;;12.44;100.00
41515;BME280;27247;48.020;16.720;2023-10-31T10:23:03;98662.88;;;12.31;100.00
41515;BME280;27247;48.020;16.720;2023-10-31T10:27:13;98671.78;;;12.25;100.00
41515;BME280;27247;48.020;16.720;2023-10-31T10:31:23;98691.59;;;12.18;100.00
41515;BME280;27247;48.020;16.720;2023-10-31T10:35:34;98665.50;;;12.06;100.00
41515;BME280;27247;48.020;16.720;2023-10-31T10:39:47;98627.13;;;11.81;100.00
41515;BME280;27247;48.020;16.720;2023-10-31T10:44:06;98602.84;;;11.69;100.00
41515;BME280;27247;48.020;16.720;2023-10-31T10:48:19;98656.00;;;11.59;100.00
41515;BME280;27247;48.020;16.720;2023-10-31T10:52:44;98683.59;;;11.53;100.00
41515;BME280;27247;48.020;16.720;2023-10-31T10:57:05;98659.72;;;11.51;100.00
41515;BME280;27247;48.020;16.720;2023-10-31T11:01:19;98700.47;;;11.47;100.00
41515;BME280;27247;48.020;16.720;2023-10-31T11:05:30;98713.84;;;11.40;100.00
41515;BME280;27247;48.020;16.720;2023-10-31T11:09:41;98725.16;;;11.36;100.00
41515;BME280;27247;48.020;16.720;2023-10-31T11:13:55;98703.16;;;11.27;100.00
41515;BME280;27247;48.020;16.720;2023-10-31T11:18:07;98746.78;;;11.21;100.00
41515;BME280;27247;48.020;16.720;2023-10-31T11:22:19;98776.00;;;11.16;100.00
41515;BME280;27247;48.020;16.720;2023-10-31T11:26:30;98787.91;;;11.13;100.00
41515;BME280;27247;48.020;16.720;2023-10-31T11:30:41;98808.69;;;11.11;100.00
41515;BME280;27247;48.020;16.720;2023-10-31T11:34:54;98796.56;;;11.15;100.00
41515;BME280;27247;48.020;16.720;2023-10-31T11:39:11;98766.13;;;11.16;100.00
41515;BME280;27247;48.020;16.720;2023-10-31T11:43:24;98720.66;;;11.03;100.00
41515;BME280;27247;48.020;16.720;2023-10-31T11:47:50;98692.28;;;10.96;100.00
41515;BME280;27247;48.020;16.720;2023-10-31T11:52:01;98751.09;;;10.96;100.00
41515;BME280;27247;48.020;16.720;2023-10-31T11:56:12;98796.53;;;10.96;100.00
41515;BME280;27247;48.020;16.720;2023-10-31T12:00:23;98821.22;;;10.98;100.00
41515;BME280;27247;48.020;16.720;2023-10-31T12:04:34;98774.34;;;10.95;100.00
41515;BME280;27247;48.020;16.720;2023-10-31T12:08:46;98772.91;;;10.99;100.00
41515;BME280;27247;48.020;16.720;2023-10-31T12:12:58;98719.22;;;10.87;100.00
41515;BME280;27247;48.020;16.720;2023-10-31T12:17:09;98683.88;;;10.85;100.00
41515;BME280;27247;48.020;16.720;2023-10-31T12:21:20;98700.53;;;10.87;100.00
41515;BME280;27247;48.020;16.720;2023-10-31T12:25:51;98738.75;;;10.95;100.00
41515;BME280;27247;48.020;16.720;2023-10-31T12:30:02;98754.19;;;10.99;100.00
41515;BME280;27247;48.020;16.720;2023-10-31T12:34:16;98765.28;;;11.09;100.00
41515;BME280;27247;48.020;16.720;2023-10-31T12:38:28;98763.03;;;11.13;100.00
41515;BME280;27247;48.020;16.720;2023-10-31T12:42:39;98732.81;;;11.12;100.00
41515;BME280;27247;48.020;16.720;2023-10-31T12:46:49;98703.81;;;11.03;100.00
41515;BME280;27247;48.020;16.720;2023-10-31T12:51:06;98687.34;;;10.99;100.00
41515;BME280;27247;48.020;16.720;2023-10-31T12:55:25;98706.88;;;11.00;100.00
41515;BME280;27247;48.020;16.720;2023-10-31T12:59:36;98752.13;;;11.08;100.00
41515;BME280;27247;48.020;16.720;2023-10-31T13:03:50;98758.09;;;11.10;100.00
41515;BME280;27247;48.020;16.720;2023-10-31T13:08:04;98720.66;;;11.10;100.00
41515;BME280;27247;48.020;16.720;2023-10-31T13:12:20;98700.91;;;11.17;100.00
41515;BME280;27247;48.020;16.720;2023-10-31T13:16:36;98694.31;;;11.33;100.00
41515;BME280;27247;48.020;16.720;2023-10-31T13:20:46;98741.00;;;11.31;100.00
41515;BME280;27247;48.020;16.720;2023-10-31T13:24:56;98787.31;;;11.25;100.00
41515;BME280;27247;48.020;16.720;2023-10-31T13:29:07;98776.00;;;11.23;100.00
41515;BME280;27247;48.020;16.720;2023-10-31T13:33:17;98772.28;;;11.17;100.00
41515;BME280;27247;48.020;16.720;2023-10-31T13:37:27;98763.44;;;11.16;100.00
41515;BME280;27247;48.020;16.720;2023-10-31T13:41:37;98761.59;;;11.17;100.00
41515;BME280;27247;48.020;16.720;2023-10-31T13:45:48;98783.59;;;11.19;100.00
41515;BME280;27247;48.020;16.720;2023-10-31T13:49:59;98790.19;;;11.10;100.00
41515;BME280;27247;48.020;16.720;2023-10-31T13:54:09;98801.50;;;11.12;100.00
41515;BME280;27247;48.020;16.720;2023-10-31T13:58:19;98781.13;;;11.11;100.00
41515;BME280;27247;48.020;16.720;2023-10-31T14:02:30;98778.03;;;11.07;100.00
41515;BME280;27247;48.020;16.720;2023-10-31T14:06:41;98784.41;;;11.13;100.00
41515;BME280;27247;48.020;16.720;2023-10-31T14:10:52;98788.34;;;11.17;100.00
41515;BME280;27247;48.020;16.720;2023-10-31T14:15:05;98803.97;;;11.13;100.00
41515;BME280;27247;48.020;16.720;2023-10-31T14:19:15;98812.38;;;11.10;100.00
41515;BME280;27247;48.020;16.720;2023-10-31T14:23:26;98818.13;;;11.01;100.00
41515;BME280;27247;48.020;16.720;2023-10-31T14:27:36;98823.88;;;10.91;100.00
41515;BME280;27247;48.020;16.720;2023-10-31T14:31:47;98838.06;;;10.85;100.00
41515;BME280;27247;48.020;16.720;2023-10-31T14:35:58;98833.53;;;10.85;100.00
41515;BME280;27247;48.020;16.720;2023-10-31T14:40:08;98834.97;;;10.88;100.00
41515;BME280;27247;48.020;16.720;2023-10-31T14:44:19;98848.53;;;10.86;100.00
41515;BME280;27247;48.020;16.720;2023-10-31T14:48:30;98840.09;;;10.83;100.00
41515;BME280;27247;48.020;16.720;2023-10-31T14:52:40;98842.38;;;10.86;100.00
41515;BME280;27247;48.020;16.720;2023-10-31T14:56:51;98837.44;;;10.83;100.00
41515;BME280;27247;48.020;16.720;2023-10-31T15:01:01;98853.88;;;10.80;100.00
41515;BME280;27247;48.020;16.720;2023-10-31T15:05:11;98859.63;;;10.77;100.00
41515;BME280;27247;48.020;16.720;2023-10-31T15:09:22;98873.19;;;10.75;100.00
41515;BME280;27247;48.020;16.720;2023-10-31T15:13:33;98872.56;;;10.73;100.00
41515;BME280;27247;48.020;16.720;2023-10-31T15:17:44;98882.63;;;10.71;100.00
41515;BME280;27247;48.020;16.720;2023-10-31T15:21:54;98892.06;;;10.67;100.00
41515;BME280;27247;48.020;16.720;2023-10-31T15:26:05;98897.78;;;10.64;100.00
41515;BME280;27247;48.020;16.720;2023-10-31T15:30:15;98893.88;;;10.60;100.00
41515;BME280;27247;48.020;16.720;2023-10-31T15:34:25;98901.88;;;10.60;100.00
41515;BME280;27247;48.020;16.720;2023-10-31T15:38:36;98911.31;;;10.56;100.00
41515;BME280;27247;48.020;16.720;2023-10-31T15:42:46;98916.66;;;10.56;100.00
41515;BME280;27247;48.020;16.720;2023-10-31T15:46:56;98933.09;;;10.53;100.00
41515;BME280;27247;48.020;16.720;2023-10-31T15:51:06;98944.41;;;10.55;100.00
41515;BME280;27247;48.020;16.720;2023-10-31T15:55:17;98962.06;;;10.56;100.00
41515;BME280;27247;48.020;16.720;2023-10-31T15:59:27;98970.09;;;10.56;100.00
41515;BME280;27247;48.020;16.720;2023-10-31T16:03:37;98984.28;;;10.57;100.00
41515;BME280;27247;48.020;16.720;2023-10-31T16:07:48;99002.59;;;10.60;100.00
41515;BME280;27247;48.020;16.720;2023-10-31T16:11:58;99012.63;;;10.58;100.00
41515;BME280;27247;48.020;16.720;2023-10-31T16:16:09;99019.63;;;10.59;100.00
41515;BME280;27247;48.020;16.720;2023-10-31T16:20:21;99031.78;;;10.61;100.00
41515;BME280;27247;48.020;16.720;2023-10-31T16:24:31;99032.78;;;10.60;100.00
41515;BME280;27247;48.020;16.720;2023-10-31T16:28:41;99034.66;;;10.60;100.00
41515;BME280;27247;48.020;16.720;2023-10-31T16:32:52;99024.97;;;10.59;100.00
41515;BME280;27247;48.020;16.720;2023-10-31T16:37:02;99031.16;;;10.59;100.00
41515;BME280;27247;48.020;16.720;2023-10-31T16:41:13;99030.13;;;10.60;100.00
41515;BME280;27247;48.020;16.720;2023-10-31T16:45:23;99027.66;;;10.59;100.00
41515;BME280;27247;48.020;16.720;2023-10-31T16:49:34;99026.00;;;10.58;100.00
41515;BME280;27247;48.020;16.720;2023-10-31T16:53:45;99031.16;;;10.59;100.00
41515;BME280;27247;48.020;16.720;2023-10-31T16:57:56;99035.47;;;10.60;100.00
41515;BME280;27247;48.020;16.720;2023-10-31T17:02:06;99033.81;;;10.59;100.00
41515;BME280;27247;48.020;16.720;2023-10-31T17:06:16;99033.44;;;10.62;100.00
41515;BME280;27247;48.020;16.720;2023-10-31T17:10:27;99034.06;;;10.64;100.00
41515;BME280;27247;48.020;16.720;2023-10-31T17:14:38;99043.53;;;10.67;100.00
41515;BME280;27247;48.020;16.720;2023-10-31T17:18:49;99047.84;;;10.68;100.00
41515;BME280;27247;48.020;16.720;2023-10-31T17:22:59;99041.91;;;10.72;100.00
41515;BME280;27247;48.020;16.720;2023-10-31T17:27:09;99044.78;;;10.71;100.00
41515;BME280;27247;48.020;16.720;2023-10-31T17:31:20;99047.66;;;10.69;100.00
41515;BME280;27247;48.020;16.720;2023-10-31T17:35:30;99040.47;;;10.70;100.00
41515;BME280;27247;48.020;16.720;2023-10-31T17:39:41;99048.03;;;10.66;100.00
41515;BME280;27247;48.020;16.720;2023-10-31T17:43:51;99066.13;;;10.64;100.00
41515;BME280;27247;48.020;16.720;2023-10-31T17:48:01;99065.47;;;10.62;100.00
41515;BME280;27247;48.020;16.720;2023-10-31T17:52:12;99068.78;;;10.64;100.00
41515;BME280;27247;48.020;16.720;2023-10-31T17:56:23;99071.59;;;10.56;100.00
41515;BME280;27247;48.020;16.720;2023-10-31T18:00:33;99077.91;;;10.48;100.00
41515;BME280;27247;48.020;16.720;2023-10-31T18:04:44;99090.00;;;10.44;100.00
41515;BME280;27247;48.020;16.720;2023-10-31T18:08:56;99095.34;;;10.44;100.00
41515;BME280;27247;48.020;16.720;2023-10-31T18:13:07;99105.41;;;10.42;100.00
41515;BME280;27247;48.020;16.720;2023-10-31T18:17:17;99108.00;;;10.36;100.00
41515;BME280;27247;48.020;16.720;2023-10-31T18:21:28;99120.59;;;10.42;100.00
41515;BME280;27247;48.020;16.720;2023-10-31T18:25:41;99129.88;;;10.46;100.00
41515;BME280;27247;48.020;16.720;2023-10-31T18:29:52;99134.00;;;10.48;100.00
41515;BME280;27247;48.020;16.720;2023-10-31T18:34:03;99132.22;;;10.55;100.00
41515;BME280;27247;48.020;16.720;2023-10-31T18:38:14;99137.63;;;10.62;99.18
41515;BME280;27247;48.020;16.720;2023-10-31T18:42:24;99131.31;;;10.70;98.03
41515;BME280;27247;48.020;16.720;2023-10-31T18:46:35;99143.72;;;10.77;97.54
41515;BME280;27247;48.020;16.720;2023-10-31T18:50:45;99149.28;;;10.82;96.58
41515;BME280;27247;48.020;16.720;2023-10-31T18:54:56;99156.09;;;10.85;96.09
41515;BME280;27247;48.020;16.720;2023-10-31T18:59:10;99156.28;;;10.83;97.38
41515;BME280;27247;48.020;16.720;2023-10-31T19:03:20;99159.94;;;10.76;97.71
41515;BME280;27247;48.020;16.720;2023-10-31T19:07:31;99164.41;;;10.69;97.93
41515;BME280;27247;48.020;16.720;2023-10-31T19:11:42;99181.25;;;10.69;98.15
41515;BME280;27247;48.020;16.720;2023-10-31T19:15:53;99196.28;;;10.70;98.11
41515;BME280;27247;48.020;16.720;2023-10-31T19:20:05;99205.94;;;10.71;97.76
41515;BME280;27247;48.020;16.720;2023-10-31T19:24:16;99209.44;;;10.72;97.88
41515;BME280;27247;48.020;16.720;2023-10-31T19:28:26;99205.13;;;10.71;98.24
41515;BME280;27247;48.020;16.720;2023-10-31T19:32:37;99193.03;;;10.75;98.39
41515;BME280;27247;48.020;16.720;2023-10-31T19:36:48;99207.22;;;10.75;98.13
41515;BME280;27247;48.020;16.720;2023-10-31T19:40:59;99218.28;;;10.72;97.61
41515;BME280;27247;48.020;16.720;2023-10-31T19:45:10;99236.81;;;10.74;97.86
41515;BME280;27247;48.020;16.720;2023-10-31T19:49:21;99242.53;;;10.71;98.68
41515;BME280;27247;48.020;16.720;2023-10-31T19:53:32;99231.84;;;10.71;97.82
41515;BME280;27247;48.020;16.720;2023-10-31T19:57:42;99238.38;;;10.68;98.16
41515;BME280;27247;48.020;16.720;2023-10-31T20:01:54;99252.31;;;10.64;98.09
41515;BME280;27247;48.020;16.720;2023-10-31T20:06:05;99260.34;;;10.64;98.06
41515;BME280;27247;48.020;16.720;2023-10-31T20:10:18;99272.63;;;10.58;98.82
41515;BME280;27247;48.020;16.720;2023-10-31T20:14:29;99280.00;;;10.56;99.67
41515;BME280;27247;48.020;16.720;2023-10-31T20:18:39;99272.16;;;10.54;99.85
41515;BME280;27247;48.020;16.720;2023-10-31T20:22:49;99276.31;;;10.57;100.00
41515;BME280;27247;48.020;16.720;2023-10-31T20:27:00;99290.50;;;10.58;100.00
41515;BME280;27247;48.020;16.720;2023-10-31T20:31:11;99286.22;;;10.63;99.68
41515;BME280;27247;48.020;16.720;2023-10-31T20:35:21;99293.88;;;10.66;99.22
41515;BME280;27247;48.020;16.720;2023-10-31T20:39:31;99295.66;;;10.80;96.06
41515;BME280;27247;48.020;16.720;2023-10-31T20:43:42;99305.84;;;10.92;95.50
41515;BME280;27247;48.020;16.720;2023-10-31T20:47:53;99303.03;;;11.00;95.01
41515;BME280;27247;48.020;16.720;2023-10-31T20:52:04;99304.31;;;11.04;94.40
41515;BME280;27247;48.020;16.720;2023-10-31T20:56:14;99298.53;;;11.00;95.09
41515;BME280;27247;48.020;16.720;2023-10-31T21:00:26;99313.47;;;10.95;95.26
41515;BME280;27247;48.020;16.720;2023-10-31T21:04:37;99316.53;;;10.92;94.83
41515;BME280;27247;48.020;16.720;2023-10-31T21:08:47;99318.13;;;10.86;95.80
41515;BME280;27247;48.020;16.720;2023-10-31T21:12:57;99320.47;;;10.74;96.94
41515;BME280;27247;48.020;16.720;2023-10-31T21:17:08;99328.78;;;10.65;97.75
41515;BME280;27247;48.020;16.720;2023-10-31T21:21:18;99324.38;;;10.57;98.80
41515;BME280;27247;48.020;16.720;2023-10-31T21:25:29;99331.31;;;10.51;99.28
41515;BME280;27247;48.020;16.720;2023-10-31T21:29:39;99324.25;;;10.44;99.27
41515;BME280;27247;48.020;16.720;2023-10-31T21:33:49;99333.78;;;10.38;99.70
41515;BME280;27247;48.020;16.720;2023-10-31T21:38:00;99323.03;;;10.32;99.97
41515;BME280;27247;48.020;16.720;2023-10-31T21:42:10;99333.63;;;10.25;100.00